Main page
METAR-TAF:

METAR-TAF

Airports :

Malé, Hulhule Island, Maldives

Velana International Airport

latitude: 04-12N, longitude: 073-32E, elevation: 2 m

Current weather observation

The report was made 58 minutes ago, at 04:00 UTC
Wind 4 kt from the Northwest
Temperature 30°C
Humidity 84%
Pressure 1011 hPa
Visibility 10 km or more
Few clouds at a height of 1800 ft
Broken clouds at a height of 27000 ft

METAR: VRMM 220400Z 32004KT 9999 FEW018 BKN270 30/27 Q1011 NOSIG

Time: 09:58 (04:58 UTC)

Forecast

The report was made 5 hours and 58 minutes ago, at 23:00 UTC
Forecast valid from 22 at 00 UTC to 23 at 06 UTC
Wind 10 kt from the West/Northwest
Visibility 10 km or more
Few clouds at a height of 1800 ft
Temporary
from 22 at 00 UTC to 22 at 04 UTC
Visibility: 5000 m
Few clouds at a height of 1700 ft, Cumulonimbus.
thunderstorm, light rain

TAF: VRMM 212300Z 2200/2306 29010KT 9999 FEW018 TEMPO 2200/2204 5000 -TSRA FEW017CB

Weather observations and forecasts of more than 4000 airports (METAR and TAF reports).

The available stations are represented by yellow and red dots on the map.

Hover mouse over dot to see the name of the station.

Then click to see weather observations and forecasts.

To change the map : click on the green buttons with a black cross to zoom in, on the green button with a dash to zoom out, or on the green arrows for adjacent maps.


METAR-TAF: